createdAt,value
2018-05-25T00:00:52.123Z,23.60
2018-05-25T00:04:56.085Z,23.90
2018-05-25T00:08:59.027Z,24.00
2018-05-25T00:13:01.807Z,26.73
2018-05-25T00:17:04.408Z,23.57
2018-05-25T00:21:06.987Z,27.47
2018-05-25T00:25:09.623Z,28.10
2018-05-25T00:29:12.352Z,20.37
2018-05-25T00:33:15.548Z,23.17
2018-05-25T00:37:20.103Z,23.27
2018-05-25T00:41:28.616Z,24.27
2018-05-25T00:45:31.583Z,30.10
2018-05-25T00:49:34.167Z,28.07
2018-05-25T00:53:36.691Z,30.03
2018-05-25T00:57:39.786Z,27.43
2018-05-25T01:01:43.174Z,29.23
2018-05-25T01:05:48.492Z,26.63
2018-05-25T01:10:00.546Z,29.57
2018-05-25T01:14:03.189Z,28.13
2018-05-25T01:18:05.721Z,29.23
2018-05-25T01:22:08.316Z,29.63
2018-05-25T01:26:10.855Z,31.30
2018-05-25T01:30:19.363Z,30.63
2018-05-25T01:34:23.098Z,31.10
2018-05-25T01:38:26.534Z,28.70
2018-05-25T01:42:31.665Z,28.40
2018-05-25T01:46:34.272Z,28.53
2018-05-25T01:50:39.490Z,27.63
2018-05-25T01:54:42.069Z,26.57
2018-05-25T01:58:45.539Z,30.00
2018-05-25T02:02:51.803Z,28.87
2018-05-25T02:06:56.207Z,28.33
2018-05-25T02:11:01.311Z,27.07
2018-05-25T02:15:03.844Z,29.90
2018-05-25T02:19:06.417Z,30.60
2018-05-25T02:23:15.207Z,28.77
2018-05-25T02:27:20.354Z,27.73
2018-05-25T02:31:23.834Z,27.73
2018-05-25T02:35:27.999Z,26.27
2018-05-25T02:39:32.823Z,28.50
2018-05-25T02:43:35.467Z,29.83
2018-05-25T02:47:38.827Z,29.37
2018-05-25T02:51:48.794Z,28.60
2018-05-25T02:55:52.878Z,29.30
2018-05-25T02:59:56.226Z,28.43
2018-05-25T03:04:03.499Z,29.00
2018-05-25T03:08:06.067Z,31.20
2018-05-25T03:12:08.663Z,29.00
2018-05-25T03:16:16.187Z,30.63
2018-05-25T03:20:20.124Z,28.93
2018-05-25T03:24:23.535Z,26.93
2018-05-25T03:28:31.478Z,28.10
2018-05-25T03:32:34.832Z,29.40
2018-05-25T03:36:37.370Z,28.67
2018-05-25T03:40:39.939Z,30.47
2018-05-25T03:44:42.493Z,31.83
2018-05-25T03:48:50.931Z,31.37
2018-05-25T03:52:55.213Z,30.83
2018-05-25T03:56:58.648Z,28.27
2018-05-25T04:01:13.640Z,28.77
2018-05-25T04:05:17.452Z,28.50
2018-05-25T04:09:21.758Z,27.20
2018-05-25T04:13:25.518Z,27.20
2018-05-25T04:17:29.583Z,28.67
2018-05-25T04:21:34.912Z,28.60
2018-05-25T04:25:40.555Z,28.40
2018-05-25T04:29:43.714Z,30.17
2018-05-25T04:33:46.624Z,29.63
2018-05-25T04:37:52.028Z,27.20
2018-05-25T04:41:55.855Z,28.17
2018-05-25T04:46:01.024Z,27.13
2018-05-25T04:50:03.573Z,26.87
2018-05-25T04:54:14.161Z,25.93
2018-05-25T04:58:19.617Z,26.27
2018-05-25T05:02:23.644Z,31.43
2018-05-25T05:06:26.649Z,25.70
2018-05-25T05:10:29.847Z,27.20
2018-05-25T05:14:32.717Z,26.97
2018-05-25T05:18:49.831Z,27.10
2018-05-25T05:22:53.141Z,30.50
2018-05-25T05:26:57.288Z,33.13
2018-05-25T05:31:00.253Z,27.90
2018-05-25T05:35:03.698Z,26.77
2018-05-25T05:39:14.999Z,26.70
2018-05-25T05:43:20.890Z,28.43
2018-05-25T05:47:25.341Z,29.20
2018-05-25T05:51:31.748Z,31.40
2018-05-25T05:55:34.283Z,35.53
2018-05-25T05:59:37.286Z,31.33
2018-05-25T06:03:40.578Z,39.17
2018-05-25T06:07:43.928Z,38.87
2018-05-25T06:11:49.002Z,35.30
2018-05-25T06:15:52.830Z,37.67
2018-05-25T06:19:56.932Z,43.93
2018-05-25T06:24:02.529Z,40.77
2018-05-25T06:28:05.083Z,36.90
2018-05-25T06:32:07.780Z,36.07
2018-05-25T06:36:10.323Z,39.97
2018-05-25T06:40:14.027Z,35.80
2018-05-25T06:44:18.318Z,39.50
2018-05-25T06:48:22.003Z,37.73
2018-05-25T06:52:25.832Z,35.73
2018-05-25T06:56:29.132Z,38.17
2018-05-25T07:00:31.880Z,36.17
2018-05-25T07:04:34.450Z,35.37
2018-05-25T07:08:36.999Z,41.47
2018-05-25T07:12:39.566Z,35.97
2018-05-25T07:16:42.094Z,38.10
2018-05-25T07:20:44.656Z,34.83
2018-05-25T07:24:47.833Z,33.33
2018-05-25T07:28:51.115Z,33.53
2018-05-25T07:32:53.851Z,35.40
2018-05-25T07:41:44.251Z,29.73
2018-05-25T07:45:47.630Z,29.23
2018-05-25T07:49:51.442Z,30.60
2018-05-25T07:53:54.504Z,29.30
2018-05-25T07:57:57.746Z,27.50
2018-05-25T08:02:03.327Z,28.67
2018-05-25T08:06:17.291Z,27.80
2018-05-25T08:10:21.055Z,26.40
2018-05-25T08:14:24.004Z,29.13
2018-05-25T08:18:26.955Z,33.13
2018-05-25T08:22:32.411Z,26.63
2018-05-25T08:26:34.967Z,26.37
2018-05-25T08:30:45.413Z,28.43
2018-05-25T08:34:50.502Z,29.13
2018-05-25T08:38:53.783Z,26.13
2018-05-25T08:42:57.148Z,29.33
2018-05-25T08:47:01.232Z,24.73
2018-05-25T08:51:04.559Z,23.23
2018-05-25T08:55:07.151Z,24.43
2018-05-25T08:59:10.490Z,25.67
2018-05-25T09:03:13.157Z,24.87
2018-05-25T09:07:16.275Z,29.50
2018-05-25T09:11:19.978Z,26.33
2018-05-25T09:15:23.018Z,25.13
2018-05-25T09:19:26.788Z,22.47
2018-05-25T09:23:32.551Z,21.43
2018-05-25T09:27:43.612Z,20.70
2018-05-25T09:31:46.742Z,22.87
2018-05-25T09:35:51.085Z,21.37
2018-05-25T09:39:55.154Z,18.73
2018-05-25T09:43:59.551Z,18.43
2018-05-25T09:48:03.362Z,17.63
2018-05-25T09:52:05.923Z,17.70
2018-05-25T09:56:08.526Z,14.07
2018-05-25T10:00:19.055Z,14.63
2018-05-25T10:04:22.869Z,13.77
2018-05-25T10:08:25.954Z,25.47
2018-05-25T10:12:28.982Z,16.27
2018-05-25T10:16:32.537Z,16.33
2018-05-25T10:20:35.106Z,16.03
2018-05-25T10:24:37.650Z,17.97
2018-05-25T10:28:40.280Z,17.43
2018-05-25T10:32:42.787Z,22.00
2018-05-25T10:36:45.690Z,16.47
2018-05-25T10:40:50.858Z,17.80
2018-05-25T10:44:53.698Z,15.50
2018-05-25T10:48:56.979Z,12.50
2018-05-25T10:52:59.944Z,13.63
2018-05-25T10:57:03.435Z,15.90
2018-05-25T11:01:06.407Z,14.67
2018-05-25T11:05:18.703Z,15.77
2018-05-25T11:09:27.303Z,16.70
2018-05-25T11:13:32.410Z,13.60
2018-05-25T11:17:34.962Z,13.47
2018-05-25T11:21:37.489Z,11.90
2018-05-25T11:25:40.055Z,14.20
2018-05-25T11:29:51.707Z,11.63
2018-05-25T11:33:56.503Z,11.80
2018-05-25T11:38:02.564Z,12.03
2018-05-25T11:42:09.370Z,11.73
2018-05-25T11:46:11.891Z,9.77
2018-05-25T11:50:16.567Z,10.87
2018-05-25T11:54:30.961Z,9.90
2018-05-25T11:58:33.822Z,10.07
2018-05-25T12:02:36.378Z,9.90
2018-05-25T12:06:39.062Z,10.50
2018-05-25T12:10:41.605Z,9.87
2018-05-25T12:14:49.589Z,10.00
2018-05-25T12:18:54.353Z,8.67
2018-05-25T12:23:02.528Z,8.70
2018-05-25T12:27:09.719Z,8.10
2018-05-25T12:31:12.284Z,8.80
2018-05-25T12:35:15.846Z,12.03
2018-05-25T12:39:21.556Z,9.00
2018-05-25T12:43:25.420Z,7.20
2018-05-25T12:47:37.102Z,8.13
2018-05-25T12:51:39.647Z,7.83
2018-05-25T12:55:42.994Z,7.87
2018-05-25T12:59:46.360Z,7.67
2018-05-25T13:03:50.176Z,7.67
2018-05-25T13:07:53.632Z,11.50
2018-05-25T13:11:57.488Z,8.90
2018-05-25T13:16:02.899Z,7.73
2018-05-25T13:20:13.148Z,7.60
2018-05-25T13:24:35.008Z,8.07
2018-05-25T13:28:37.782Z,7.27
2018-05-25T13:32:40.313Z,7.27
2018-05-25T13:36:42.966Z,6.97
2018-05-25T13:40:46.964Z,6.20
2018-05-25T13:44:51.011Z,6.47
2018-05-25T13:48:53.864Z,7.80
2018-05-25T13:52:56.860Z,6.87
2018-05-25T13:56:59.599Z,7.03
2018-05-25T14:01:02.685Z,6.33
2018-05-25T14:05:05.972Z,7.40
2018-05-25T14:09:08.722Z,6.40
2018-05-25T14:13:11.361Z,6.83
2018-05-25T14:17:14.613Z,5.53
2018-05-25T14:21:20.214Z,5.67
2018-05-25T14:25:25.071Z,6.27
2018-05-25T14:29:32.644Z,7.43
2018-05-25T14:33:47.706Z,5.90
2018-05-25T14:37:54.357Z,6.10
2018-05-25T14:42:03.389Z,5.67
2018-05-25T14:46:06.589Z,5.70
2018-05-25T14:50:09.185Z,5.63
2018-05-25T14:54:14.391Z,5.97
2018-05-25T14:58:18.317Z,5.07
2018-05-25T15:02:22.225Z,5.17
2018-05-25T15:06:24.944Z,4.50
2018-05-25T15:10:29.103Z,4.53
2018-05-25T15:14:32.304Z,5.90
2018-05-25T15:18:34.847Z,4.23
2018-05-25T15:22:39.438Z,5.87
2018-05-25T15:26:50.685Z,5.03
2018-05-25T15:30:53.961Z,5.50
2018-05-25T15:34:57.457Z,5.13
2018-05-25T15:39:01.450Z,5.50
2018-05-25T15:43:14.622Z,5.20
2018-05-25T15:47:18.602Z,5.70
2018-05-25T15:51:21.590Z,6.10
2018-05-25T15:55:24.283Z,6.20
2018-05-25T15:59:26.932Z,5.73
2018-05-25T16:03:29.703Z,14.80
2018-05-25T16:07:33.195Z,5.90
2018-05-25T16:11:43.857Z,8.80
2018-05-25T16:15:48.107Z,5.27
2018-05-25T16:19:53.579Z,5.33
2018-05-25T16:23:56.368Z,4.97
2018-05-25T16:27:59.127Z,5.13
2018-05-25T16:32:01.704Z,5.27
2018-05-25T16:36:04.382Z,5.67
2018-05-25T16:40:07.710Z,5.40
2018-05-25T16:44:19.005Z,5.53
2018-05-25T16:48:22.367Z,6.20
2018-05-25T16:52:25.455Z,5.30
2018-05-25T16:56:28.604Z,6.67
2018-05-25T17:00:31.794Z,4.73
2018-05-25T17:04:34.251Z,5.27
2018-05-25T17:08:37.845Z,4.63
2018-05-25T17:12:41.150Z,4.70
2018-05-25T17:16:43.718Z,5.07
2018-05-25T17:20:50.149Z,5.30
2018-05-25T17:24:53.315Z,4.50
2018-05-25T17:29:29.543Z,6.83
2018-05-25T17:33:32.177Z,5.13
2018-05-25T17:37:42.843Z,4.90
2018-05-25T17:41:45.747Z,4.60
2018-05-25T17:45:53.232Z,5.00
2018-05-25T17:50:12.551Z,6.70
2018-05-25T17:54:21.130Z,5.13
2018-05-25T17:58:25.481Z,6.60
2018-05-25T18:02:28.335Z,7.57
2018-05-25T18:06:47.937Z,6.73
2018-05-25T18:10:53.126Z,5.73
2018-05-25T18:14:57.684Z,10.13
2018-05-25T18:19:01.839Z,5.10
2018-05-25T18:23:04.595Z,5.40
2018-05-25T18:27:09.806Z,4.60
2018-05-25T18:31:19.888Z,5.13
2018-05-25T18:35:35.706Z,6.00
2018-05-25T18:39:38.593Z,5.57
2018-05-25T18:43:41.139Z,4.87
2018-05-25T18:47:49.672Z,4.67
2018-05-25T18:51:53.452Z,4.90
2018-05-25T18:55:57.092Z,5.30
2018-05-25T19:00:03.062Z,7.00
2018-05-25T19:04:05.638Z,5.70
2018-05-25T19:08:08.210Z,5.17
2018-05-25T19:12:21.682Z,5.93
2018-05-25T19:16:25.360Z,5.70
2018-05-25T19:20:29.507Z,6.57
2018-05-25T19:24:32.838Z,5.87
2018-05-25T19:28:37.391Z,5.07
2018-05-25T19:32:44.283Z,6.10
2018-05-25T19:36:47.297Z,6.13
2018-05-25T19:40:50.212Z,5.67
2018-05-25T19:44:54.226Z,5.47
2018-05-25T19:48:57.623Z,5.30
2018-05-25T19:53:00.297Z,5.83
2018-05-25T19:57:03.841Z,5.90
2018-05-25T20:01:13.114Z,5.83
2018-05-25T20:05:16.523Z,5.63
2018-05-25T20:09:20.080Z,5.93
2018-05-25T20:13:22.733Z,4.90
2018-05-25T20:17:25.408Z,5.40
2018-05-25T20:21:28.193Z,6.13
2018-05-25T20:25:31.531Z,6.00
2018-05-25T20:29:47.344Z,5.60
2018-05-25T20:33:50.201Z,5.60
2018-05-25T20:37:53.875Z,6.17
2018-05-25T20:41:57.374Z,6.37
2018-05-25T20:45:59.906Z,5.17
2018-05-25T20:50:02.535Z,5.70
2018-05-25T20:54:05.875Z,5.30
2018-05-25T20:58:09.355Z,5.50
2018-05-25T21:02:18.137Z,6.10
2018-05-25T21:06:20.795Z,5.83
2018-05-25T21:10:23.512Z,6.10
2018-05-25T21:14:27.075Z,5.23
2018-05-25T21:18:29.686Z,5.33
2018-05-25T21:22:33.044Z,5.93
2018-05-25T21:26:35.562Z,6.07
2018-05-25T21:30:38.211Z,5.50
2018-05-25T21:34:47.568Z,5.33
2018-05-25T21:38:51.223Z,6.17
2018-05-25T21:42:54.612Z,5.33
2018-05-25T21:46:58.089Z,6.27
2018-05-25T21:51:00.710Z,6.33
2018-05-25T21:55:03.275Z,8.30
2018-05-25T21:59:05.872Z,6.47
2018-05-25T22:03:14.294Z,5.93
2018-05-25T22:07:17.144Z,8.40
2018-05-25T22:11:20.319Z,6.40
2018-05-25T22:15:23.844Z,7.07
2018-05-25T22:19:27.625Z,5.97
2018-05-25T22:23:30.244Z,6.93
2018-05-25T22:27:33.567Z,6.57
2018-05-25T22:31:36.855Z,5.70
2018-05-25T22:35:39.519Z,6.13
2018-05-25T22:39:42.124Z,6.47
2018-05-25T22:43:56.957Z,5.80
2018-05-25T22:48:11.386Z,6.43
2018-05-25T22:56:57.179Z,7.17
2018-05-25T23:01:00.604Z,6.53
2018-05-25T23:05:03.120Z,6.50
2018-05-25T23:09:12.021Z,8.27
2018-05-25T23:13:14.611Z,9.90
2018-05-25T23:17:18.239Z,10.73
2018-05-25T23:21:22.351Z,9.47
2018-05-25T23:25:25.351Z,7.77
2018-05-25T23:29:28.415Z,7.43
2018-05-25T23:33:31.937Z,9.13
2018-05-25T23:37:34.465Z,7.73
2018-05-25T23:41:37.054Z,6.70
2018-05-25T23:45:39.586Z,9.53
2018-05-25T23:49:44.657Z,7.93
2018-05-25T23:53:49.145Z,7.30
2018-05-25T23:57:52.809Z,7.33
